Rushville, OH

12:57 AM EDT on April 22, 2015 (GMT -0400)
Port Columbus International | | Change Station
CLOSE
Current Station
Airport
Location: Columbus,
Elevation: 814 ft
Nearby Weather Stations

Elev 814 ft 39.99 °N, 82.88 °W | Updated 6 minutes ago

Overcast
Overcast
51 °F
Feels Like 51 °F
N
6
Wind Variable Wind from WSW

Today
High -- | Low -- °F
--% Chance of Precip.
Yesterday
High -- | Low -- °F
Precip. -- in
6:42 AM 8:14 PM
Waxing Crescent, 15% visible
Pressure 29.71 in
Visibility 10.0 miles
Clouds Mostly Cloudy 7000 ft
Overcast 9000 ft
Dew Point 35 °F
Humidity 54%
Rainfall 0.00 in
Snow Depth Not available.
UV 0 out of 12
Pollen 10.90 out of 12
Air Quality Not available.
Flu Activity Regional
METAR KCMH 220451Z 25005KT 10SM BKN070 OVC090 11/02 A2971 RMK AO2 RAB03E25 SLP060 P0000 T01060017 401610056

More Conditions Fewer Conditions

Pressure 29.71 in
Visibility 10.0 miles
Clouds Mostly Cloudy 7000 ft
Overcast 9000 ft
Dew Point 35 °F
Humidity 54%
Rainfall 0.00 in
Snow Depth Not available.
UV 0 out of 12
Pollen 10.90 out of 12
Air Quality Not available.
Flu Activity Regional
METAR KCMH 220451Z 25005KT 10SM BKN070 OVC090 11/02 A2971 RMK AO2 RAB03E25 SLP060 P0000 T01060017 401610056

More Conditions Fewer Conditions

10-Day Weather Forecast

Almanac

Astronomy

Apr. 22, 2015 Rise Set
Actual Time
Civil Twilight
Nautical Twilight
Astronomical Twilight
Moon
Length of Visible Light
Length of Day
Tomorrow will be .
, % of the Moon is Illuminated

Today's Extremes

State Highs State Lows

Community

WunderPhotos

Upload Photos

1,815,668 photos uploaded!

WunderBlogs® & News

Nearby

Air Quality

  Air Quality AQ Index Pollutant
Not available.

Snow Depth

Station Depth Elevation

Earthquake Activity

City Distance Mag. Time & Date
Minimum magnitude displayed is 2.5.

Coastal Water Temperatures

Place Temperature

Stations

Nearby Weather Stations

Station Location Temp. Windchill Dew Point Humidity Wind Precip. Elev Updated Type